Time;durP1;ratioP1;P1;durP2;ratioP2;P2;SDS_P1;SDS_P2;PMS_P1;PMS_P2;Temp;Humidity;BMP_temperature;BMP_pressure;BME280_temperature;BME280_humidity;BME280_pressure;Samples;Min_cycle;Max_cycle;Signal;HPM_P1;HPM_P2
2023/03/04 00:01:37;;;;;;;1999.90;999.90;;;4.60;99.90;;;;;;5012975;28;20057;-72
2023/03/04 00:04:03;;;;;;;1999.90;999.90;;;4.60;99.90;;;;;;4995066;28;20033;-72
2023/03/04 00:06:29;;;;;;;1999.90;999.90;;;4.60;99.90;;;;;;4992928;28;20057;-79
2023/03/04 00:08:55;;;;;;;1999.90;999.90;;;4.60;99.90;;;;;;4992972;28;20022;-79
2023/03/04 00:11:20;;;;;;;1999.90;999.90;;;4.60;99.90;;;;;;4992745;28;20497;-79
2023/03/04 00:13:46;;;;;;;1999.90;999.90;;;4.60;99.90;;;;;;4992527;28;20026;-72
2023/03/04 00:16:15;;;;;;;1999.90;999.90;;;4.60;99.90;;;;;;4992974;28;20041;-72
2023/03/04 00:18:41;;;;;;;1999.90;999.90;;;4.60;99.90;;;;;;4992921;28;20036;-72
2023/03/04 00:21:06;;;;;;;1999.90;999.90;;;4.70;99.90;;;;;;4992853;28;20034;-80
2023/03/04 00:23:32;;;;;;;1999.90;999.90;;;4.60;99.90;;;;;;4992891;28;20042;-72
2023/03/04 00:25:57;;;;;;;1999.90;999.90;;;4.70;99.90;;;;;;4993275;28;20034;-72
2023/03/04 00:28:23;;;;;;;1999.90;999.90;;;4.70;99.90;;;;;;4992856;28;20077;-72
2023/03/04 00:30:49;;;;;;;1999.90;999.90;;;4.70;99.90;;;;;;4992948;28;20034;-72
2023/03/04 00:33:15;;;;;;;1999.90;999.90;;;4.70;99.90;;;;;;4995810;28;20015;-73
2023/03/04 00:35:41;;;;;;;1999.90;999.90;;;4.80;99.90;;;;;;4996274;28;20105;-72
2023/03/04 00:38:06;;;;;;;1999.90;999.90;;;4.70;99.90;;;;;;4996574;28;20025;-80
2023/03/04 00:40:32;;;;;;;1999.90;999.90;;;4.70;99.90;;;;;;5028386;28;20029;-72
2023/03/04 00:42:58;;;;;;;1999.90;999.90;;;4.70;99.90;;;;;;5035652;28;20559;-80
2023/03/04 00:45:23;;;;;;;1999.90;999.90;;;4.80;99.90;;;;;;5031175;28;20026;-79
2023/03/04 00:47:49;;;;;;;1999.90;999.90;;;4.70;99.90;;;;;;5015437;28;20050;-80
2023/03/04 00:50:15;;;;;;;1999.90;999.90;;;4.80;99.90;;;;;;5015530;28;20033;-72
2023/03/04 00:52:40;;;;;;;1999.90;999.90;;;4.80;99.90;;;;;;5014485;28;20025;-72
2023/03/04 00:55:07;;;;;;;1999.90;999.90;;;4.70;99.90;;;;;;5015504;28;20030;-72
2023/03/04 00:57:32;;;;;;;1999.90;999.90;;;4.80;99.90;;;;;;5015815;28;20072;-79
2023/03/04 00:59:58;;;;;;;1999.90;999.90;;;4.70;99.90;;;;;;5015531;28;20054;-72
2023/03/04 01:02:24;;;;;;;1999.90;999.90;;;4.80;99.90;;;;;;5011275;28;20018;-72
2023/03/04 01:04:49;;;;;;;1999.90;999.90;;;4.80;99.90;;;;;;4996114;28;20031;-72
2023/03/04 01:07:15;;;;;;;1999.90;999.90;;;4.80;99.90;;;;;;4996164;28;20085;-72
2023/03/04 01:09:41;;;;;;;1999.90;999.90;;;4.80;99.90;;;;;;4995778;28;20027;-80
2023/03/04 01:12:06;;;;;;;1999.90;999.90;;;4.80;99.90;;;;;;4994972;28;20485;-80
2023/03/04 01:14:32;;;;;;;1999.90;999.90;;;4.70;99.90;;;;;;4995385;28;20054;-72
2023/03/04 01:16:58;;;;;;;1999.90;999.90;;;4.70;99.90;;;;;;4995281;28;20081;-80
2023/03/04 01:19:23;;;;;;;1999.90;999.90;;;4.70;99.90;;;;;;4995898;28;20025;-72
2023/03/04 01:21:49;;;;;;;1999.90;999.90;;;4.70;99.90;;;;;;4995560;28;20389;-72
2023/03/04 01:24:14;;;;;;;1999.90;999.90;;;4.60;99.90;;;;;;4995575;28;20031;-72
2023/03/04 01:26:40;;;;;;;1999.90;999.90;;;4.70;99.90;;;;;;4995629;28;20026;-72
2023/03/04 01:29:05;;;;;;;1999.90;999.90;;;4.70;99.90;;;;;;4995792;28;20062;-72
2023/03/04 01:31:31;;;;;;;1999.90;999.90;;;4.70;99.90;;;;;;4995414;28;20026;-72
2023/03/04 01:33:57;;;;;;;1999.90;999.90;;;4.60;99.90;;;;;;4995392;28;20031;-72
2023/03/04 01:36:22;;;;;;;1999.90;999.90;;;4.70;99.90;;;;;;4995432;28;20058;-73
2023/03/04 01:38:48;;;;;;;1999.90;999.90;;;4.70;99.90;;;;;;4998414;28;20405;-80
2023/03/04 01:41:24;;;;;;;1999.90;999.90;;;4.70;99.90;;;;;;5034520;28;20029;-72
2023/03/04 01:43:50;;;;;;;1999.90;999.90;;;4.70;99.90;;;;;;5033644;28;20514;-73
2023/03/04 01:46:16;;;;;;;1999.90;999.90;;;4.70;99.90;;;;;;5023033;28;20082;-72
2023/03/04 01:48:43;;;;;;;1999.90;999.90;;;4.70;99.90;;;;;;5014728;28;20030;-80
2023/03/04 01:51:15;;;;;;;1999.90;999.90;;;4.80;99.90;;;;;;5014736;28;20413;-72
2023/03/04 01:53:41;;;;;;;1999.90;999.90;;;4.80;99.90;;;;;;5013377;28;20029;-72
2023/03/04 01:56:29;;;;;;;1999.90;999.90;;;4.70;99.90;;;;;;5014454;28;20018;-73
2023/03/04 01:59:11;;;;;;;1999.90;999.90;;;4.70;99.90;;;;;;5014453;28;20121;-72
2023/03/04 02:01:38;;;;;;;1999.90;999.90;;;4.70;99.90;;;;;;5014434;28;20088;-72
2023/03/04 02:04:05;;;;;;;1999.90;999.90;;;4.70;99.90;;;;;;4996603;28;20039;-72
2023/03/04 02:06:31;;;;;;;1999.90;999.90;;;4.70;99.90;;;;;;4994952;28;20057;-72
2023/03/04 02:08:57;;;;;;;1999.90;999.90;;;4.70;99.90;;;;;;4994798;28;20493;-72
2023/03/04 02:11:22;;;;;;;1999.90;999.90;;;4.70;99.90;;;;;;4994579;28;20029;-72
2023/03/04 02:13:48;;;;;;;1999.90;999.90;;;4.70;99.90;;;;;;4994019;28;20492;-72
2023/03/04 02:16:14;;;;;;;1999.90;999.90;;;4.70;99.90;;;;;;4994620;28;20029;-72
2023/03/04 02:18:39;;;;;;;1999.90;999.90;;;4.70;99.90;;;;;;4994592;28;20149;-80
2023/03/04 02:21:19;;;;;;;1999.90;999.90;;;4.70;99.90;;;;;;4994664;28;20026;-72
2023/03/04 02:23:54;;;;;;;1999.90;999.90;;;4.70;99.90;;;;;;4994498;28;20034;-72
2023/03/04 02:26:22;;;;;;;1999.90;999.90;;;4.60;99.90;;;;;;4994375;28;20053;-72
2023/03/04 02:28:50;;;;;;;1999.90;999.90;;;4.60;99.90;;;;;;4994630;28;20034;-79
2023/03/04 02:31:29;;;;;;;1999.90;999.90;;;4.50;99.90;;;;;;4994172;28;20022;-79
2023/03/04 02:33:58;;;;;;;1999.90;999.90;;;4.50;99.90;;;;;;4994522;28;20026;-72
2023/03/04 02:36:24;;;;;;;1999.90;999.90;;;4.40;99.90;;;;;;4994295;28;20030;-73
2023/03/04 02:38:52;;;;;;;1999.90;999.90;;;4.40;99.90;;;;;;4998234;28;20030;-72
2023/03/04 02:41:22;;;;;;;1999.90;999.90;;;4.20;99.90;;;;;;5033555;28;20036;-79
2023/03/04 02:43:53;;;;;;;1999.90;999.90;;;4.20;99.90;;;;;;5033315;28;20037;-80
2023/03/04 02:46:19;;;;;;;1999.90;999.90;;;4.20;99.90;;;;;;5021504;28;20054;-72
2023/03/04 02:48:45;;;;;;;1999.90;999.90;;;4.20;99.90;;;;;;5013606;28;20501;-72
2023/03/04 02:51:10;;;;;;;1999.90;999.90;;;4.20;99.90;;;;;;5013358;28;20028;-72
2023/03/04 02:53:36;;;;;;;1999.90;999.90;;;4.20;99.90;;;;;;5013494;28;20026;-79
2023/03/04 02:56:02;;;;;;;1999.90;999.90;;;4.20;99.90;;;;;;5013121;28;20444;-79
2023/03/04 02:58:28;;;;;;;1999.90;999.90;;;4.20;99.90;;;;;;5013821;28;20392;-72
2023/03/04 03:00:54;;;;;;;1999.90;999.90;;;4.20;99.90;;;;;;5013648;28;20045;-72
2023/03/04 03:03:19;;;;;;;1999.90;999.90;;;4.20;99.90;;;;;;5001525;28;20113;-72
2023/03/04 03:05:45;;;;;;;1999.90;999.90;;;4.20;99.90;;;;;;4993850;28;20026;-72
2023/03/04 03:08:10;;;;;;;1999.90;999.90;;;4.20;99.90;;;;;;4994063;28;20444;-79
2023/03/04 03:10:36;;;;;;;1999.90;999.90;;;4.20;99.90;;;;;;4993878;28;20030;-72
2023/03/04 03:13:02;;;;;;;1999.90;999.90;;;4.10;99.90;;;;;;4993902;28;20022;-72
2023/03/04 03:15:28;;;;;;;1999.90;999.90;;;4.20;99.90;;;;;;4992853;28;20023;-72
2023/03/04 03:17:53;;;;;;;1999.90;999.90;;;4.20;99.90;;;;;;5024844;28;20034;-72
2023/03/04 03:20:19;;;;;;;1999.90;999.90;;;4.20;99.90;;;;;;4993962;28;20381;-72
2023/03/04 03:22:44;;;;;;;1999.90;999.90;;;4.20;99.90;;;;;;4993662;28;20041;-79
2023/03/04 03:25:12;;;;;;;1999.90;999.90;;;4.20;99.90;;;;;;4993513;28;20554;-72
2023/03/04 03:27:37;;;;;;;1999.90;999.90;;;4.20;99.90;;;;;;4993324;28;20108;-72
2023/03/04 03:30:04;;;;;;;1999.90;999.90;;;4.20;99.90;;;;;;4993459;28;20066;-72
2023/03/04 03:32:30;;;;;;;1999.90;999.90;;;4.20;99.90;;;;;;4993535;28;20018;-72
2023/03/04 03:34:56;;;;;;;1999.90;999.90;;;4.20;99.90;;;;;;4993788;28;20029;-79
2023/03/04 03:37:21;;;;;;;1999.90;999.90;;;4.20;99.90;;;;;;4993399;28;20027;-72
2023/03/04 03:39:47;;;;;;;1999.90;999.90;;;4.20;99.90;;;;;;5012682;28;20075;-73
2023/03/04 03:42:12;;;;;;;1999.90;999.90;;;4.20;99.90;;;;;;5032856;28;20481;-72
2023/03/04 03:44:38;;;;;;;1999.90;999.90;;;4.20;99.90;;;;;;5032413;28;20069;-72
2023/03/04 03:47:04;;;;;;;1999.90;999.90;;;4.10;99.90;;;;;;5014499;28;20132;-79
2023/03/04 03:49:29;;;;;;;1999.90;999.90;;;4.10;99.90;;;;;;5013184;28;20452;-79
2023/03/04 03:51:55;;;;;;;1999.90;999.90;;;4.10;99.90;;;;;;5012672;28;20058;-72
2023/03/04 03:54:20;;;;;;;1999.90;999.90;;;4.20;99.90;;;;;;5012898;28;20026;-72
2023/03/04 03:56:46;;;;;;;1999.90;999.90;;;4.10;99.90;;;;;;5013014;28;20026;-72
2023/03/04 03:59:11;;;;;;;1999.90;999.90;;;4.10;99.90;;;;;;5012870;28;20028;-79
2023/03/04 04:01:37;;;;;;;1999.90;999.90;;;4.10;99.90;;;;;;5013141;28;20056;-80
2023/03/04 04:04:04;;;;;;;1999.90;999.90;;;4.20;99.90;;;;;;4995023;28;20397;-72
2023/03/04 04:06:29;;;;;;;1999.90;999.90;;;4.20;99.90;;;;;;4993308;28;20030;-72
2023/03/04 04:08:55;;;;;;;1999.90;999.90;;;4.20;99.90;;;;;;4997135;28;20513;-72
2023/03/04 04:11:21;;;;;;;1999.90;999.90;;;4.20;99.90;;;;;;4996978;28;20034;-79
2023/03/04 04:13:47;;;;;;;1999.90;999.90;;;4.20;99.90;;;;;;4997135;28;20504;-79
2023/03/04 04:16:12;;;;;;;1999.90;999.90;;;4.20;99.90;;;;;;4995744;28;20027;-79
2023/03/04 04:18:38;;;;;;;1999.90;999.90;;;4.20;99.90;;;;;;4996885;28;20034;-72
2023/03/04 04:21:04;;;;;;;1999.90;999.90;;;4.20;99.90;;;;;;4996873;28;20077;-72
2023/03/04 04:23:30;;;;;;;1999.90;999.90;;;4.20;99.90;;;;;;4996838;28;20041;-72
2023/03/04 04:25:56;;;;;;;1999.90;999.90;;;4.20;99.90;;;;;;5011710;28;20031;-79
2023/03/04 04:28:22;;;;;;;1999.90;999.90;;;4.20;99.90;;;;;;4996318;28;20497;-80
2023/03/04 04:30:48;;;;;;;1999.90;999.90;;;4.20;99.90;;;;;;4996423;28;20019;-72
2023/03/04 04:33:14;;;;;;;1999.90;999.90;;;4.20;99.90;;;;;;4996652;28;20085;-72
2023/03/04 04:35:39;;;;;;;1999.90;999.90;;;4.20;99.90;;;;;;4996768;28;20022;-72
2023/03/04 04:38:06;;;;;;;1999.90;999.90;;;4.20;99.90;;;;;;4996277;28;20394;-79
2023/03/04 04:40:32;;;;;;;1999.90;999.90;;;4.20;99.90;;;;;;5027855;28;20025;-80
2023/03/04 04:42:57;;;;;;;1999.90;999.90;;;4.20;99.90;;;;;;5035590;28;20030;-72
2023/03/04 04:45:23;;;;;;;1999.90;999.90;;;4.20;99.90;;;;;;5023564;28;20025;-73
2023/03/04 04:47:50;;;;;;;1999.90;999.90;;;4.20;99.90;;;;;;5015745;28;20089;-72
2023/03/04 04:50:16;;;;;;;1999.90;999.90;;;4.20;99.90;;;;;;5015682;28;20148;-72
2023/03/04 04:52:41;;;;;;;1999.90;999.90;;;4.20;99.90;;;;;;5015762;28;20560;-79
2023/03/04 04:55:07;;;;;;;1999.90;999.90;;;4.20;99.90;;;;;;5015623;28;20022;-79
2023/03/04 04:57:33;;;;;;;1999.90;999.90;;;4.20;99.90;;;;;;5015655;28;20077;-72
2023/03/04 04:59:59;;;;;;;1999.90;999.90;;;4.20;99.90;;;;;;5015637;28;20500;-72
2023/03/04 05:02:25;;;;;;;1999.90;999.90;;;4.20;99.90;;;;;;5011366;28;20018;-72
2023/03/04 05:04:50;;;;;;;1999.90;999.90;;;4.20;99.90;;;;;;4995978;28;20030;-79
2023/03/04 05:07:16;;;;;;;1999.90;999.90;;;4.20;99.90;;;;;;4995814;28;20109;-80
2023/03/04 05:09:42;;;;;;;1999.90;999.90;;;4.20;99.90;;;;;;4995799;28;20034;-73
2023/03/04 05:12:07;;;;;;;1999.90;999.90;;;4.20;99.90;;;;;;4995833;28;20027;-72
2023/03/04 05:14:33;;;;;;;1999.90;999.90;;;4.20;99.90;;;;;;4995975;28;20397;-72
2023/03/04 05:16:58;;;;;;;1999.90;999.90;;;4.10;99.90;;;;;;4995233;28;20030;-80
2023/03/04 05:19:24;;;;;;;1999.90;999.90;;;4.10;99.90;;;;;;4995618;28;20019;-79
2023/03/04 05:21:50;;;;;;;1999.90;999.90;;;4.10;99.90;;;;;;4995718;28;20031;-72
2023/03/04 05:24:15;;;;;;;1999.90;999.90;;;4.10;99.90;;;;;;5027161;28;20037;-72
2023/03/04 05:26:41;;;;;;;1999.90;999.90;;;4.10;99.90;;;;;;4995499;28;20497;-72
2023/03/04 05:29:06;;;;;;;1999.90;999.90;;;4.10;99.90;;;;;;4995544;28;20023;-72
2023/03/04 05:31:32;;;;;;;1999.90;999.90;;;4.00;99.90;;;;;;4995320;28;20038;-79
2023/03/04 05:33:58;;;;;;;1999.90;999.90;;;4.00;99.90;;;;;;4995743;28;20105;-80
2023/03/04 05:36:23;;;;;;;1999.90;999.90;;;4.00;99.90;;;;;;4995442;28;20452;-72
2023/03/04 05:38:49;;;;;;;1999.90;999.90;;;4.00;99.90;;;;;;4998975;28;20551;-73
2023/03/04 05:41:17;;;;;;;1999.90;999.90;;;4.00;99.90;;;;;;5034726;28;20030;-72
2023/03/04 05:43:43;;;;;;;1999.90;999.90;;;3.90;99.90;;;;;;5034362;28;20107;-79
2023/03/04 05:46:16;;;;;;;1999.90;999.90;;;3.80;99.90;;;;;;5023871;28;20489;-79
2023/03/04 05:48:43;;;;;;;1999.90;999.90;;;3.80;99.90;;;;;;5014927;28;20036;-72
2023/03/04 05:51:09;;;;;;;1999.90;999.90;;;3.70;99.90;;;;;;5014720;28;20018;-72
2023/03/04 05:53:35;;;;;;;1999.90;999.90;;;3.70;99.90;;;;;;5014554;28;20018;-72
2023/03/04 05:56:07;;;;;;;1999.90;999.90;;;3.60;99.90;;;;;;5014516;28;20060;-80
2023/03/04 05:58:33;;;;;;;1999.90;999.90;;;3.50;99.90;;;;;;5014648;28;20022;-79
2023/03/04 06:00:59;;;;;;;1999.90;999.90;;;3.50;99.90;;;;;;5014873;28;20084;-79
2023/03/04 06:03:25;;;;;;;1999.90;999.90;;;3.50;99.90;;;;;;5001969;28;20062;-79
2023/03/04 06:05:52;;;;;;;1999.90;999.90;;;3.50;99.90;;;;;;5009994;28;20457;-72
2023/03/04 06:08:17;;;;;;;1999.90;999.90;;;3.40;99.90;;;;;;4994691;28;20105;-72
2023/03/04 06:10:43;;;;;;;1999.90;999.90;;;3.50;99.90;;;;;;4994547;28;20162;-72
2023/03/04 06:13:09;;;;;;;1999.90;999.90;;;3.30;99.90;;;;;;4994816;28;20038;-79
2023/03/04 06:15:35;;;;;;;1999.90;999.90;;;3.30;99.90;;;;;;4994840;28;20583;-72
2023/03/04 06:18:01;;;;;;;1999.90;999.90;;;3.30;99.90;;;;;;4994749;28;20537;-72
2023/03/04 06:20:26;;;;;;;1999.90;999.90;;;3.20;99.90;;;;;;4994098;28;20101;-72
2023/03/04 06:22:52;;;;;;;1999.90;999.90;;;3.20;99.90;;;;;;4994419;28;20034;-72
2023/03/04 06:25:18;;;;;;;1999.90;999.90;;;3.10;99.90;;;;;;4994609;28;20030;-79
2023/03/04 06:27:43;;;;;;;1999.90;999.90;;;3.00;99.90;;;;;;4994435;28;20070;-72
2023/03/04 06:30:09;;;;;;;1999.90;999.90;;;2.90;99.90;;;;;;5025431;28;20022;-72
2023/03/04 06:32:35;;;;;;;1999.90;999.90;;;2.80;99.90;;;;;;4994053;28;20486;-72
2023/03/04 06:35:01;;;;;;;1999.90;999.90;;;2.70;99.90;;;;;;4994200;28;20029;-80
2023/03/04 06:37:26;;;;;;;1999.90;999.90;;;2.60;99.90;;;;;;5013219;28;20057;-79
2023/03/04 06:39:52;;;;;;;1999.90;999.90;;;2.60;99.90;;;;;;5023882;28;20021;-72
2023/03/04 06:42:18;;;;;;;1999.90;999.90;;;2.50;99.90;;;;;;5033463;28;20377;-72
2023/03/04 06:44:44;;;;;;;1999.90;999.90;;;2.40;99.90;;;;;;5033694;28;20096;-72
2023/03/04 06:47:09;;;;;;;1999.90;999.90;;;2.30;99.90;;;;;;5013119;28;20497;-72
2023/03/04 06:49:35;;;;;;;1999.90;999.90;;;2.30;99.90;;;;;;5013399;28;20462;-73
2023/03/04 06:52:01;;;;;;;1999.90;999.90;;;2.20;99.90;;;;;;5013569;28;20041;-79
2023/03/04 06:54:26;;;;;;;1999.90;999.90;;;2.20;99.90;;;;;;5013688;28;20504;-72
2023/03/04 06:56:52;;;;;;;1999.90;999.90;;;2.20;99.90;;;;;;5013718;28;20083;-72
2023/03/04 06:59:18;;;;;;;1999.90;999.90;;;2.20;99.90;;;;;;5013332;28;20029;-72
2023/03/04 07:01:43;;;;;;;1999.90;999.90;;;2.20;99.90;;;;;;5013558;28;20038;-79
2023/03/04 07:04:10;;;;;;;1999.90;999.90;;;2.20;99.90;;;;;;4995914;28;20027;-72
2023/03/04 07:06:35;;;;;;;1999.90;999.90;;;2.20;99.90;;;;;;5013401;28;20037;-72
2023/03/04 07:09:01;;;;;;;1999.90;999.90;;;2.20;99.90;;;;;;5013480;28;20029;-72
2023/03/04 07:11:27;;;;;;;1999.90;999.90;;;2.20;99.90;;;;;;5013405;28;20526;-72
2023/03/04 07:13:52;;;;;;;1999.90;999.90;;;2.30;99.90;;;;;;5013482;28;20021;-80
2023/03/04 07:16:20;;;;;;;1999.90;999.90;;;2.30;99.90;;;;;;5013604;28;20026;-80
2023/03/04 07:18:46;;;;;;;1999.90;999.90;;;2.30;99.90;;;;;;5012629;28;20024;-72
2023/03/04 07:21:14;;;;;;;1999.90;999.90;;;2.30;99.90;;;;;;5013384;28;20048;-72
2023/03/04 07:23:40;;;;;;;1999.90;999.90;;;2.30;99.90;;;;;;5013056;28;20026;-72
2023/03/04 07:26:06;;;;;;;1999.90;999.90;;;2.40;99.90;;;;;;5013097;28;20113;-72
2023/03/04 07:28:33;;;;;;;1999.90;999.90;;;2.40;99.90;;;;;;5011738;28;20033;-72
2023/03/04 07:31:17;;;;;;;1999.90;999.90;;;2.40;99.90;;;;;;5012703;28;20397;-80
2023/03/04 07:33:43;;;;;;;1999.90;999.90;;;2.50;99.90;;;;;;5013382;28;20056;-72
2023/03/04 07:36:08;;;;;;;1999.90;999.90;;;2.60;99.90;;;;;;5012888;28;20063;-72
2023/03/04 07:38:34;;;;;;;1999.90;999.90;;;2.60;99.90;;;;;;5013223;28;20072;-72
2023/03/04 07:41:00;;;;;;;1999.90;999.90;;;2.70;99.90;;;;;;5032166;28;20080;-80
2023/03/04 07:43:26;;;;;;;1999.90;999.90;;;2.70;99.90;;;;;;5036318;28;20055;-72
2023/03/04 07:45:51;;;;;;;1999.90;999.90;;;2.80;99.90;;;;;;5028617;28;20112;-72
2023/03/04 07:48:17;;;;;;;1999.90;999.90;;;2.80;99.90;;;;;;5016822;28;20040;-72
2023/03/04 07:50:42;;;;;;;1999.90;999.90;;;2.90;99.90;;;;;;5017071;28;20034;-72
2023/03/04 07:53:08;;;;;;;1999.90;999.90;;;3.10;99.90;;;;;;5017019;28;20022;-80
2023/03/04 07:55:34;;;;;;;1999.90;999.90;;;3.50;99.90;;;;;;5016812;28;20026;-80
2023/03/04 07:57:59;;;;;;;1999.90;999.90;;;4.70;99.90;;;;;;5017076;28;20062;-73
2023/03/04 08:00:25;;;;;;;1999.90;999.90;;;5.70;99.90;;;;;;5016871;28;20030;-72
2023/03/04 08:02:50;;;;;;;1999.90;999.90;;;6.20;99.90;;;;;;5009109;28;20034;-72
2023/03/04 08:05:16;;;;;;;1999.90;999.90;;;6.20;99.90;;;;;;4997145;28;20034;-72
2023/03/04 08:07:42;;;;;;;1999.90;999.90;;;5.50;99.90;;;;;;4997168;28;20031;-72
2023/03/04 08:10:08;;;;;;;1999.90;999.90;;;4.70;99.90;;;;;;5028546;28;20030;-80
2023/03/04 08:12:34;;;;;;;1999.90;999.90;;;4.30;99.90;;;;;;4996895;28;20022;-72
2023/03/04 08:15:00;;;;;;;1999.90;999.90;;;4.10;99.90;;;;;;4997040;28;20080;-72
2023/03/04 08:17:28;;;;;;;1999.90;999.90;;;4.10;99.90;;;;;;4996263;28;20440;-72
2023/03/04 08:19:54;;;;;;;1999.90;999.90;;;4.10;99.90;;;;;;4996891;28;20030;-80
2023/03/04 08:22:20;;;;;;;1999.90;999.90;;;4.10;99.90;;;;;;4997122;28;20108;-80
2023/03/04 08:24:45;;;;;;;1999.90;999.90;;;4.20;99.90;;;;;;4996681;28;20041;-72
2023/03/04 08:27:11;;;;;;;1999.90;999.90;;;4.40;99.90;;;;;;4996806;28;20533;-72
2023/03/04 08:29:36;;;;;;;1999.90;999.90;;;4.60;99.90;;;;;;4996512;28;20041;-73
2023/03/04 08:32:02;;;;;;;1999.90;999.90;;;4.90;99.90;;;;;;5028033;28;20073;-80
2023/03/04 08:34:28;;;;;;;1999.90;999.90;;;5.70;99.90;;;;;;4996516;28;20066;-81
2023/03/04 08:36:54;;;;;;;1999.90;999.90;;;7.60;99.90;;;;;;4996454;28;20030;-73
2023/03/04 08:39:19;;;;;;;1999.90;999.90;;;8.50;99.90;;;;;;5008265;28;20033;-73
2023/03/04 08:41:46;;;;;;;1999.90;999.90;;;9.20;99.90;;;;;;5035868;28;20081;-73
2023/03/04 08:44:12;;;;;;;1999.90;999.90;;;9.90;99.90;;;;;;5035786;28;20030;-73
2023/03/04 08:46:40;;;;;;;1999.90;999.90;;;10.00;99.90;;;;;;5020806;28;20049;-81
2023/03/04 08:49:05;;;;;;;1999.90;999.90;;;10.60;99.90;;;;;;5015881;28;20038;-81
2023/03/04 08:51:32;;;;;;;1999.90;999.90;;;11.00;99.90;;;;;;5015737;28;20041;-73
2023/03/04 08:53:57;;;;;;;1999.90;999.90;;;11.40;99.90;;;;;;5015334;28;20508;-74
2023/03/04 08:56:23;;;;;;;1999.90;999.90;;;11.60;99.90;;;;;;5016124;28;20056;-74
2023/03/04 08:58:49;;;;;;;1999.90;999.90;;;12.00;99.90;;;;;;5015240;28;20072;-81
2023/03/04 09:01:15;;;;;;;1999.90;999.90;;;12.00;99.90;;;;;;5015625;28;20029;-80
2023/03/04 09:03:41;;;;;;;1999.90;999.90;;;12.20;99.90;;;;;;5000998;28;20181;-74
2023/03/04 09:06:08;;;;;;;1999.90;999.90;;;12.00;99.90;;;;;;4995928;28;20033;-74
2023/03/04 09:08:35;;;;;;;1999.90;999.90;;;12.60;99.90;;;;;;4995935;28;20113;-74
2023/03/04 09:11:01;;;;;;;1999.90;999.90;;;12.40;99.90;;;;;;4995696;28;20039;-81
2023/03/04 09:13:29;;;;;;;1999.90;999.90;;;12.20;99.90;;;;;;4995655;28;20085;-80
2023/03/04 09:15:55;;;;;;;1999.90;999.90;;;12.20;99.90;;;;;;4995622;28;20049;-74
2023/03/04 09:18:22;;;;;;;1999.90;999.90;;;12.40;99.90;;;;;;4995840;28;20054;-74
2023/03/04 09:20:49;;;;;;;1999.90;999.90;;;13.30;99.90;;;;;;4995695;28;20513;-74
2023/03/04 09:23:15;;;;;;;1999.90;999.90;;;13.40;99.90;;;;;;5010725;28;20027;-74
2023/03/04 09:25:42;;;;;;;1999.90;999.90;;;13.40;99.90;;;;;;4995745;28;20033;-80
2023/03/04 09:28:07;;;;;;;1999.90;999.90;;;13.40;99.90;;;;;;5010556;28;20034;-80
2023/03/04 09:30:34;;;;;;;1999.90;999.90;;;14.20;99.90;;;;;;4995466;28;20057;-74
2023/03/04 09:33:00;;;;;;;1999.90;999.90;;;15.00;99.90;;;;;;4995747;28;20018;-74
2023/03/04 09:35:28;;;;;;;1999.90;999.90;;;14.50;99.90;;;;;;5010605;28;20074;-74
2023/03/04 09:37:54;;;;;;;1999.90;999.90;;;14.00;99.80;;;;;;4995475;28;20037;-80
2023/03/04 09:40:30;;;;;;;1999.90;999.90;;;14.00;99.90;;;;;;5023643;28;20024;-80
2023/03/04 09:43:02;;;;;;;1999.90;999.90;;;14.30;99.90;;;;;;5034509;28;20030;-74
2023/03/04 09:45:35;;;;;;;1999.90;999.90;;;14.40;99.90;;;;;;5029612;28;20109;-74
2023/03/04 09:48:01;;;;;;;1999.90;999.90;;;14.30;99.50;;;;;;5014678;28;20042;-74
2023/03/04 09:50:31;;;;;;;1999.90;999.90;;;13.70;99.90;;;;;;5014758;28;20109;-80
2023/03/04 09:53:19;;;;;;;1999.90;999.90;;;12.40;99.90;;;;;;5014765;28;20026;-80
2023/03/04 09:55:51;;;;;;;1999.90;999.90;;;11.50;99.90;;;;;;5014663;28;20041;-73
2023/03/04 09:58:30;;;;;;;1999.90;999.90;;;11.00;99.90;;;;;;5013311;28;20399;-74
2023/03/04 10:01:02;;;;;;;1999.90;999.90;;;10.60;99.90;;;;;;5014922;28;20022;-74
2023/03/04 10:03:42;;;;;;;1999.90;999.90;;;10.10;99.90;;;;;;5001345;28;20032;-74
2023/03/04 10:06:15;;;;;;;1999.90;999.90;;;9.70;99.90;;;;;;4994325;28;20035;-74
2023/03/04 10:08:42;;;;;;;1999.90;999.90;;;9.50;99.90;;;;;;4994896;28;20093;-73
2023/03/04 10:11:23;;;;;;;1999.90;999.90;;;9.40;99.90;;;;;;4994275;28;20413;-73
2023/03/04 10:13:55;;;;;;;1999.90;999.90;;;9.50;99.90;;;;;;4995102;28;20425;-73
2023/03/04 10:16:25;;;;;;;1999.90;999.90;;;9.30;99.90;;;;;;5026254;28;20466;-73
2023/03/04 10:18:57;;;;;;;1999.90;999.90;;;9.50;99.90;;;;;;4994645;28;20048;-78
2023/03/04 10:21:31;;;;;;;1999.90;999.90;;;9.20;99.90;;;;;;4994586;28;20489;-74
2023/03/04 10:23:59;;;;;;;1999.90;999.90;;;9.40;99.90;;;;;;4994676;28;20041;-73
2023/03/04 10:26:31;;;;;;;1999.90;999.90;;;9.00;99.90;;;;;;4994685;28;20023;-74
2023/03/04 10:28:57;;;;;;;1999.90;999.90;;;9.20;99.90;;;;;;5025887;28;20030;-73
2023/03/04 10:31:35;;;;;;;1999.90;999.90;;;9.30;99.90;;;;;;4994137;28;20038;-74
2023/03/04 10:34:05;;;;;;;1999.90;999.90;;;9.10;99.90;;;;;;4994718;28;20109;-74
2023/03/04 10:36:35;;;;;;;1999.90;999.90;;;9.20;99.90;;;;;;5001763;28;20026;-73
2023/03/04 10:39:10;;;;;;;1999.90;999.90;;;9.30;99.90;;;;;;5016690;28;20037;-78
2023/03/04 10:41:40;;;;;;;1999.90;999.90;;;9.40;99.90;;;;;;5033280;28;20032;-74
2023/03/04 10:44:08;;;;;;;1999.90;999.90;;;9.50;99.90;;;;;;5033320;28;20052;-78
2023/03/04 10:46:43;;;;;;;1999.90;999.90;;;9.50;99.90;;;;;;5019371;28;20045;-78
2023/03/04 10:49:10;;;;;;;1999.90;999.90;;;9.60;99.90;;;;;;5013767;28;20034;-78
2023/03/04 10:52:13;;;;;;;1999.90;999.90;;;9.40;99.90;;;;;;5012014;28;20033;-78
2023/03/04 10:54:51;;;;;;;1999.90;999.90;;;9.70;99.90;;;;;;4999876;28;20026;-73
2023/03/04 10:57:31;;;;;;;1999.90;999.90;;;9.70;99.90;;;;;;5013652;28;20050;-73
2023/03/04 11:00:00;;;;;;;1999.90;999.90;;;9.70;99.90;;;;;;5013551;28;20068;-73
2023/03/04 11:02:27;;;;;;;1999.90;999.90;;;9.70;99.90;;;;;;5009348;28;20101;-78
2023/03/04 11:05:25;;;;;;;1999.90;999.90;;;9.70;99.90;;;;;;4994035;28;20080;-78
2023/03/04 11:07:57;;;;;;;1999.90;999.90;;;9.90;99.90;;;;;;4994004;28;20486;-73
2023/03/04 11:10:38;;;;;;;1999.90;999.90;;;10.30;99.90;;;;;;4993778;28;20434;-73
2023/03/04 11:13:20;;;;;;;1999.90;999.90;;;10.10;99.90;;;;;;4993150;28;20337;-78
2023/03/04 11:16:00;;;;;;;1999.90;999.90;;;10.30;99.90;;;;;;4993136;28;20018;-73
2023/03/04 11:18:45;;;;;;;1999.90;999.90;;;10.30;99.90;;;;;;4993314;28;20029;-78
2023/03/04 11:21:25;;;;;;;1999.90;999.90;;;10.50;99.90;;;;;;4994015;28;20169;-73
2023/03/04 11:23:57;;;;;;;1999.90;999.90;;;10.30;99.90;;;;;;4993824;28;20027;-78
2023/03/04 11:26:31;;;;;;;1999.90;999.90;;;10.20;99.90;;;;;;4993662;28;20038;-79
2023/03/04 11:29:12;;;;;;;1999.90;999.90;;;10.40;99.90;;;;;;4993663;28;20030;-79
2023/03/04 11:31:59;;;;;;;1999.90;999.90;;;10.50;99.90;;;;;;4993414;28;20033;-79
2023/03/04 11:34:37;;;;;;;1999.90;999.90;;;10.40;99.90;;;;;;4993775;28;20023;-73
2023/03/04 11:37:14;;;;;;;1999.90;999.90;;;10.30;99.90;;;;;;4993617;28;20038;-73
2023/03/04 11:40:02;;;;;;;1999.90;999.90;;;10.40;99.90;;;;;;5010499;28;20009;-73
2023/03/04 11:42:42;;;;;;;1999.90;999.90;;;10.60;99.90;;;;;;5032490;28;20026;-79
2023/03/04 11:45:15;;;;;;;1999.90;999.90;;;10.50;99.90;;;;;;5030671;28;20029;-79
2023/03/04 11:48:08;;;;;;;1999.90;999.90;;;10.60;99.90;;;;;;5011511;28;20054;-73
2023/03/04 11:50:47;;;;;;;1999.90;999.90;;;10.70;99.90;;;;;;5012721;28;20057;-73
2023/03/04 11:53:22;;;;;;;1999.90;999.90;;;10.90;99.90;;;;;;5013207;28;20045;-79
2023/03/04 11:56:18;;;;;;;1999.90;999.90;;;11.20;99.90;;;;;;5011625;28;20022;-73
2023/03/04 11:59:03;;;;;;;1999.90;999.90;;;11.00;99.90;;;;;;5012878;28;20023;-79
2023/03/04 12:01:46;;;;;;;1999.90;999.90;;;11.00;99.90;;;;;;5013120;28;20030;-73
2023/03/04 12:04:39;;;;;;;1999.90;999.90;;;11.00;99.90;;;;;;5012678;28;20097;-73
2023/03/04 12:07:35;;;;;;;1999.90;999.90;;;11.00;99.90;;;;;;5012683;28;20420;-79
2023/03/04 12:10:29;;;;;;;1999.90;999.90;;;11.50;99.90;;;;;;5013229;28;20033;-79
2023/03/04 12:13:13;;;;;;;;;;;11.40;99.90;;;;;;5013366;28;20022;-74